sensor_id;sensor_type;location;lat;lon;timestamp;P1;durP1;ratioP1;P2;durP2;ratioP2
41923;SDS011;27613;48.116;11.656;2022-09-24T00:01:59;4.97;;;3.80;;
41923;SDS011;27613;48.116;11.656;2022-09-24T00:04:25;7.80;;;4.40;;
41923;SDS011;27613;48.116;11.656;2022-09-24T00:06:55;4.90;;;3.67;;
41923;SDS011;27613;48.116;11.656;2022-09-24T00:09:21;5.88;;;3.85;;
41923;SDS011;27613;48.116;11.656;2022-09-24T00:11:47;6.85;;;3.95;;
41923;SDS011;27613;48.116;11.656;2022-09-24T00:14:14;5.43;;;3.70;;
41923;SDS011;27613;48.116;11.656;2022-09-24T00:16:41;5.70;;;3.80;;
41923;SDS011;27613;48.116;11.656;2022-09-24T00:19:08;4.78;;;3.15;;
41923;SDS011;27613;48.116;11.656;2022-09-24T00:21:36;5.45;;;3.70;;
41923;SDS011;27613;48.116;11.656;2022-09-24T00:24:03;6.07;;;3.83;;
41923;SDS011;27613;48.116;11.656;2022-09-24T00:26:31;5.00;;;3.58;;
41923;SDS011;27613;48.116;11.656;2022-09-24T00:29:16;7.78;;;3.58;;
41923;SDS011;27613;48.116;11.656;2022-09-24T00:31:43;5.00;;;3.72;;
41923;SDS011;27613;48.116;11.656;2022-09-24T00:34:09;5.50;;;3.63;;
41923;SDS011;27613;48.116;11.656;2022-09-24T00:36:36;8.85;;;3.67;;
41923;SDS011;27613;48.116;11.656;2022-09-24T00:39:02;5.65;;;3.97;;
41923;SDS011;27613;48.116;11.656;2022-09-24T00:41:29;5.85;;;3.88;;
41923;SDS011;27613;48.116;11.656;2022-09-24T00:43:57;6.97;;;3.30;;
41923;SDS011;27613;48.116;11.656;2022-09-24T00:49:13;5.35;;;3.97;;
41923;SDS011;27613;48.116;11.656;2022-09-24T00:51:40;10.07;;;4.05;;
41923;SDS011;27613;48.116;11.656;2022-09-24T00:54:10;5.30;;;3.80;;
41923;SDS011;27613;48.116;11.656;2022-09-24T00:56:40;4.85;;;3.38;;
41923;SDS011;27613;48.116;11.656;2022-09-24T00:59:09;4.78;;;3.17;;
41923;SDS011;27613;48.116;11.656;2022-09-24T01:01:41;5.68;;;3.72;;
41923;SDS011;27613;48.116;11.656;2022-09-24T01:04:07;5.95;;;3.40;;
41923;SDS011;27613;48.116;11.656;2022-09-24T01:06:34;6.45;;;3.97;;
41923;SDS011;27613;48.116;11.656;2022-09-24T01:09:00;5.13;;;3.67;;
41923;SDS011;27613;48.116;11.656;2022-09-24T01:28:17;4.28;;;3.10;;
41923;SDS011;27613;48.116;11.656;2022-09-24T01:31:02;4.15;;;3.30;;
41923;SDS011;27613;48.116;11.656;2022-09-24T01:33:32;5.03;;;3.30;;
41923;SDS011;27613;48.116;11.656;2022-09-24T01:36:01;3.90;;;3.03;;
41923;SDS011;27613;48.116;11.656;2022-09-24T01:38:32;4.00;;;2.80;;
41923;SDS011;27613;48.116;11.656;2022-09-24T01:41:03;4.45;;;3.22;;
41923;SDS011;27613;48.116;11.656;2022-09-24T01:43:31;6.35;;;3.50;;
41923;SDS011;27613;48.116;11.656;2022-09-24T01:45:59;4.43;;;3.05;;
41923;SDS011;27613;48.116;11.656;2022-09-24T01:48:27;5.00;;;3.30;;
41923;SDS011;27613;48.116;11.656;2022-09-24T01:50:58;5.65;;;3.30;;
41923;SDS011;27613;48.116;11.656;2022-09-24T01:53:47;5.22;;;2.78;;
41923;SDS011;27613;48.116;11.656;2022-09-24T01:56:32;7.45;;;3.30;;
41923;SDS011;27613;48.116;11.656;2022-09-24T02:01:31;3.83;;;2.97;;
41923;SDS011;27613;48.116;11.656;2022-09-24T02:04:05;3.97;;;3.00;;
41923;SDS011;27613;48.116;11.656;2022-09-24T02:06:37;7.35;;;3.55;;
41923;SDS011;27613;48.116;11.656;2022-09-24T02:09:27;5.00;;;3.03;;
41923;SDS011;27613;48.116;11.656;2022-09-24T02:12:02;4.05;;;2.70;;
41923;SDS011;27613;48.116;11.656;2022-09-24T02:14:35;3.60;;;2.80;;
41923;SDS011;27613;48.116;11.656;2022-09-24T02:17:06;5.90;;;3.35;;
41923;SDS011;27613;48.116;11.656;2022-09-24T02:19:35;18.95;;;3.40;;
41923;SDS011;27613;48.116;11.656;2022-09-24T02:22:04;5.70;;;3.00;;
41923;SDS011;27613;48.116;11.656;2022-09-24T02:27:04;4.47;;;2.88;;
41923;SDS011;27613;48.116;11.656;2022-09-24T02:29:30;8.15;;;2.95;;
41923;SDS011;27613;48.116;11.656;2022-09-24T02:31:55;8.18;;;2.67;;
41923;SDS011;27613;48.116;11.656;2022-09-24T02:34:28;4.28;;;2.70;;
41923;SDS011;27613;48.116;11.656;2022-09-24T02:36:59;3.90;;;2.97;;
41923;SDS011;27613;48.116;11.656;2022-09-24T02:39:29;4.57;;;3.05;;
41923;SDS011;27613;48.116;11.656;2022-09-24T02:41:55;8.73;;;2.63;;
41923;SDS011;27613;48.116;11.656;2022-09-24T02:44:22;4.07;;;2.60;;
41923;SDS011;27613;48.116;11.656;2022-09-24T02:46:48;3.78;;;2.97;;
41923;SDS011;27613;48.116;11.656;2022-09-24T02:49:14;4.75;;;3.00;;
41923;SDS011;27613;48.116;11.656;2022-09-24T02:51:40;3.80;;;2.72;;
41923;SDS011;27613;48.116;11.656;2022-09-24T02:54:06;4.10;;;2.80;;
41923;SDS011;27613;48.116;11.656;2022-09-24T02:56:32;5.30;;;3.05;;
41923;SDS011;27613;48.116;11.656;2022-09-24T02:58:58;4.75;;;2.75;;
41923;SDS011;27613;48.116;11.656;2022-09-24T03:01:26;4.35;;;2.75;;
41923;SDS011;27613;48.116;11.656;2022-09-24T03:03:51;6.13;;;2.72;;
41923;SDS011;27613;48.116;11.656;2022-09-24T03:06:17;4.95;;;2.95;;
41923;SDS011;27613;48.116;11.656;2022-09-24T03:08:43;3.38;;;2.80;;
41923;SDS011;27613;48.116;11.656;2022-09-24T03:11:09;5.75;;;3.10;;
41923;SDS011;27613;48.116;11.656;2022-09-24T03:13:36;3.50;;;2.50;;
41923;SDS011;27613;48.116;11.656;2022-09-24T03:16:02;3.80;;;2.80;;
41923;SDS011;27613;48.116;11.656;2022-09-24T03:18:28;4.20;;;2.65;;
41923;SDS011;27613;48.116;11.656;2022-09-24T03:20:58;3.70;;;2.55;;
41923;SDS011;27613;48.116;11.656;2022-09-24T03:23:25;4.55;;;2.58;;
41923;SDS011;27613;48.116;11.656;2022-09-24T03:25:51;11.18;;;2.97;;
41923;SDS011;27613;48.116;11.656;2022-09-24T03:28:17;4.85;;;2.70;;
41923;SDS011;27613;48.116;11.656;2022-09-24T03:30:43;4.03;;;2.88;;
41923;SDS011;27613;48.116;11.656;2022-09-24T03:33:28;3.80;;;2.22;;
41923;SDS011;27613;48.116;11.656;2022-09-24T03:35:56;2.97;;;2.58;;
41923;SDS011;27613;48.116;11.656;2022-09-24T03:38:22;3.40;;;2.60;;
41923;SDS011;27613;48.116;11.656;2022-09-24T03:40:48;4.25;;;2.80;;
41923;SDS011;27613;48.116;11.656;2022-09-24T03:43:14;3.55;;;2.42;;
41923;SDS011;27613;48.116;11.656;2022-09-24T03:45:39;4.10;;;2.92;;
41923;SDS011;27613;48.116;11.656;2022-09-24T03:48:05;4.00;;;2.72;;
41923;SDS011;27613;48.116;11.656;2022-09-24T03:50:31;4.75;;;2.60;;
41923;SDS011;27613;48.116;11.656;2022-09-24T03:52:59;3.67;;;2.75;;
41923;SDS011;27613;48.116;11.656;2022-09-24T03:55:25;8.38;;;2.90;;
41923;SDS011;27613;48.116;11.656;2022-09-24T03:57:50;5.88;;;2.60;;
41923;SDS011;27613;48.116;11.656;2022-09-24T04:00:16;4.70;;;2.80;;
41923;SDS011;27613;48.116;11.656;2022-09-24T04:02:41;4.90;;;2.80;;
41923;SDS011;27613;48.116;11.656;2022-09-24T04:05:07;3.83;;;2.38;;
41923;SDS011;27613;48.116;11.656;2022-09-24T04:07:33;4.55;;;2.63;;
41923;SDS011;27613;48.116;11.656;2022-09-24T04:09:58;3.78;;;2.22;;
41923;SDS011;27613;48.116;11.656;2022-09-24T04:12:24;5.05;;;2.55;;
41923;SDS011;27613;48.116;11.656;2022-09-24T04:14:50;3.47;;;2.60;;
41923;SDS011;27613;48.116;11.656;2022-09-24T04:17:15;4.05;;;2.65;;
41923;SDS011;27613;48.116;11.656;2022-09-24T04:19:41;3.33;;;2.35;;
41923;SDS011;27613;48.116;11.656;2022-09-24T04:22:07;4.07;;;2.50;;
41923;SDS011;27613;48.116;11.656;2022-09-24T04:24:33;3.97;;;2.55;;
41923;SDS011;27613;48.116;11.656;2022-09-24T04:26:58;4.65;;;2.60;;
41923;SDS011;27613;48.116;11.656;2022-09-24T04:29:24;3.80;;;2.40;;
41923;SDS011;27613;48.116;11.656;2022-09-24T04:31:50;3.58;;;2.25;;
41923;SDS011;27613;48.116;11.656;2022-09-24T04:34:15;5.63;;;3.38;;
41923;SDS011;27613;48.116;11.656;2022-09-24T04:36:42;5.47;;;3.03;;
41923;SDS011;27613;48.116;11.656;2022-09-24T04:39:07;3.17;;;2.42;;
41923;SDS011;27613;48.116;11.656;2022-09-24T04:41:33;3.03;;;2.10;;
41923;SDS011;27613;48.116;11.656;2022-09-24T04:43:59;4.15;;;2.55;;
41923;SDS011;27613;48.116;11.656;2022-09-24T04:46:24;4.03;;;2.20;;
41923;SDS011;27613;48.116;11.656;2022-09-24T04:48:50;5.22;;;2.97;;
41923;SDS011;27613;48.116;11.656;2022-09-24T04:51:17;3.53;;;2.50;;
41923;SDS011;27613;48.116;11.656;2022-09-24T04:53:43;3.25;;;2.35;;
41923;SDS011;27613;48.116;11.656;2022-09-24T04:56:11;4.70;;;2.33;;
41923;SDS011;27613;48.116;11.656;2022-09-24T04:58:38;11.27;;;2.50;;
41923;SDS011;27613;48.116;11.656;2022-09-24T05:01:04;3.63;;;2.22;;
41923;SDS011;27613;48.116;11.656;2022-09-24T05:03:30;6.93;;;3.20;;
41923;SDS011;27613;48.116;11.656;2022-09-24T05:05:55;6.68;;;2.30;;
41923;SDS011;27613;48.116;11.656;2022-09-24T05:08:21;7.80;;;3.33;;
41923;SDS011;27613;48.116;11.656;2022-09-24T05:10:47;4.32;;;2.85;;
41923;SDS011;27613;48.116;11.656;2022-09-24T05:13:12;4.05;;;2.40;;
41923;SDS011;27613;48.116;11.656;2022-09-24T05:15:38;3.80;;;2.53;;
41923;SDS011;27613;48.116;11.656;2022-09-24T05:18:03;5.88;;;2.25;;
41923;SDS011;27613;48.116;11.656;2022-09-24T05:20:30;4.47;;;2.70;;
41923;SDS011;27613;48.116;11.656;2022-09-24T05:22:56;4.70;;;2.28;;
41923;SDS011;27613;48.116;11.656;2022-09-24T05:25:22;3.33;;;2.30;;
41923;SDS011;27613;48.116;11.656;2022-09-24T05:27:48;2.92;;;2.10;;
41923;SDS011;27613;48.116;11.656;2022-09-24T05:30:15;3.60;;;2.35;;
41923;SDS011;27613;48.116;11.656;2022-09-24T05:32:43;3.90;;;2.38;;
41923;SDS011;27613;48.116;11.656;2022-09-24T05:35:09;3.22;;;2.35;;
41923;SDS011;27613;48.116;11.656;2022-09-24T05:37:35;3.53;;;2.40;;
41923;SDS011;27613;48.116;11.656;2022-09-24T05:40:02;3.45;;;2.08;;
41923;SDS011;27613;48.116;11.656;2022-09-24T05:42:48;4.90;;;2.58;;
41923;SDS011;27613;48.116;11.656;2022-09-24T05:45:15;3.63;;;2.45;;
41923;SDS011;27613;48.116;11.656;2022-09-24T05:47:42;3.67;;;2.38;;
41923;SDS011;27613;48.116;11.656;2022-09-24T05:50:13;10.15;;;3.08;;
41923;SDS011;27613;48.116;11.656;2022-09-24T05:52:39;3.83;;;2.53;;
41923;SDS011;27613;48.116;11.656;2022-09-24T05:55:06;7.82;;;2.55;;
41923;SDS011;27613;48.116;11.656;2022-09-24T05:57:32;6.50;;;2.78;;
41923;SDS011;27613;48.116;11.656;2022-09-24T05:59:58;4.45;;;2.22;;
41923;SDS011;27613;48.116;11.656;2022-09-24T06:02:24;4.07;;;3.15;;
41923;SDS011;27613;48.116;11.656;2022-09-24T06:04:50;5.80;;;2.85;;
41923;SDS011;27613;48.116;11.656;2022-09-24T06:07:15;4.70;;;3.00;;
41923;SDS011;27613;48.116;11.656;2022-09-24T06:09:41;4.90;;;2.70;;
41923;SDS011;27613;48.116;11.656;2022-09-24T06:12:06;4.78;;;2.70;;
41923;SDS011;27613;48.116;11.656;2022-09-24T06:14:34;6.65;;;3.40;;
41923;SDS011;27613;48.116;11.656;2022-09-24T06:17:00;4.53;;;2.55;;
41923;SDS011;27613;48.116;11.656;2022-09-24T06:19:25;4.22;;;2.60;;
41923;SDS011;27613;48.116;11.656;2022-09-24T06:21:51;4.22;;;2.70;;
41923;SDS011;27613;48.116;11.656;2022-09-24T06:24:17;4.20;;;2.80;;
41923;SDS011;27613;48.116;11.656;2022-09-24T06:26:42;3.45;;;2.33;;
41923;SDS011;27613;48.116;11.656;2022-09-24T06:29:08;4.78;;;2.85;;
41923;SDS011;27613;48.116;11.656;2022-09-24T06:31:33;6.32;;;2.47;;
41923;SDS011;27613;48.116;11.656;2022-09-24T06:33:59;3.30;;;1.88;;
41923;SDS011;27613;48.116;11.656;2022-09-24T06:36:26;3.58;;;2.40;;
41923;SDS011;27613;48.116;11.656;2022-09-24T06:41:22;4.00;;;2.45;;
41923;SDS011;27613;48.116;11.656;2022-09-24T06:43:48;4.88;;;2.45;;
41923;SDS011;27613;48.116;11.656;2022-09-24T06:46:14;4.75;;;2.08;;
41923;SDS011;27613;48.116;11.656;2022-09-24T06:48:40;4.00;;;2.60;;
41923;SDS011;27613;48.116;11.656;2022-09-24T06:51:06;3.65;;;2.25;;
41923;SDS011;27613;48.116;11.656;2022-09-24T06:53:32;7.22;;;2.78;;
41923;SDS011;27613;48.116;11.656;2022-09-24T06:55:58;8.00;;;5.70;;
41923;SDS011;27613;48.116;11.656;2022-09-24T06:58:23;16.25;;;7.05;;
41923;SDS011;27613;48.116;11.656;2022-09-24T07:00:53;8.80;;;6.35;;
41923;SDS011;27613;48.116;11.656;2022-09-24T07:03:23;6.90;;;3.50;;
41923;SDS011;27613;48.116;11.656;2022-09-24T07:05:49;5.60;;;2.70;;
41923;SDS011;27613;48.116;11.656;2022-09-24T07:08:15;3.40;;;2.42;;
41923;SDS011;27613;48.116;11.656;2022-09-24T07:10:45;3.78;;;2.50;;
41923;SDS011;27613;48.116;11.656;2022-09-24T07:13:13;4.43;;;2.40;;
41923;SDS011;27613;48.116;11.656;2022-09-24T07:15:40;2.70;;;1.95;;
41923;SDS011;27613;48.116;11.656;2022-09-24T07:18:07;4.38;;;2.40;;
41923;SDS011;27613;48.116;11.656;2022-09-24T07:20:33;8.77;;;2.63;;
41923;SDS011;27613;48.116;11.656;2022-09-24T07:23:01;4.30;;;2.78;;
41923;SDS011;27613;48.116;11.656;2022-09-24T07:25:28;3.78;;;2.50;;
41923;SDS011;27613;48.116;11.656;2022-09-24T07:27:53;8.45;;;2.20;;
41923;SDS011;27613;48.116;11.656;2022-09-24T07:30:19;3.05;;;2.13;;
41923;SDS011;27613;48.116;11.656;2022-09-24T07:32:44;3.95;;;2.45;;
41923;SDS011;27613;48.116;11.656;2022-09-24T07:35:10;3.58;;;2.45;;
41923;SDS011;27613;48.116;11.656;2022-09-24T07:37:35;3.17;;;2.17;;
41923;SDS011;27613;48.116;11.656;2022-09-24T07:40:01;6.47;;;2.55;;
41923;SDS011;27613;48.116;11.656;2022-09-24T07:42:27;3.40;;;2.22;;
41923;SDS011;27613;48.116;11.656;2022-09-24T07:44:53;4.60;;;2.60;;
41923;SDS011;27613;48.116;11.656;2022-09-24T07:47:20;4.28;;;2.60;;
41923;SDS011;27613;48.116;11.656;2022-09-24T07:49:46;6.20;;;3.15;;
41923;SDS011;27613;48.116;11.656;2022-09-24T07:52:11;3.95;;;2.30;;
41923;SDS011;27613;48.116;11.656;2022-09-24T07:54:37;5.07;;;3.08;;
41923;SDS011;27613;48.116;11.656;2022-09-24T07:57:07;5.25;;;3.15;;
41923;SDS011;27613;48.116;11.656;2022-09-24T07:59:35;2.47;;;1.98;;
41923;SDS011;27613;48.116;11.656;2022-09-24T08:02:01;5.82;;;2.13;;
41923;SDS011;27613;48.116;11.656;2022-09-24T08:04:27;4.03;;;2.25;;
41923;SDS011;27613;48.116;11.656;2022-09-24T08:06:52;4.47;;;2.50;;
41923;SDS011;27613;48.116;11.656;2022-09-24T08:09:18;4.60;;;2.38;;
41923;SDS011;27613;48.116;11.656;2022-09-24T08:11:43;3.53;;;2.35;;
41923;SDS011;27613;48.116;11.656;2022-09-24T08:14:09;3.72;;;2.50;;
41923;SDS011;27613;48.116;11.656;2022-09-24T08:16:35;4.20;;;2.85;;
41923;SDS011;27613;48.116;11.656;2022-09-24T08:19:01;4.53;;;2.80;;
41923;SDS011;27613;48.116;11.656;2022-09-24T08:21:26;3.80;;;2.67;;
41923;SDS011;27613;48.116;11.656;2022-09-24T08:23:53;4.40;;;3.00;;
41923;SDS011;27613;48.116;11.656;2022-09-24T08:26:19;3.78;;;2.67;;
41923;SDS011;27613;48.116;11.656;2022-09-24T08:28:47;5.25;;;2.63;;
41923;SDS011;27613;48.116;11.656;2022-09-24T08:31:13;4.75;;;2.70;;
41923;SDS011;27613;48.116;11.656;2022-09-24T08:33:39;5.72;;;3.22;;
41923;SDS011;27613;48.116;11.656;2022-09-24T08:36:07;4.63;;;3.17;;
41923;SDS011;27613;48.116;11.656;2022-09-24T08:38:33;4.40;;;3.10;;
41923;SDS011;27613;48.116;11.656;2022-09-24T08:49:05;8.02;;;3.08;;
41923;SDS011;27613;48.116;11.656;2022-09-24T08:51:35;4.03;;;2.95;;
41923;SDS011;27613;48.116;11.656;2022-09-24T08:54:06;9.00;;;3.65;;
41923;SDS011;27613;48.116;11.656;2022-09-24T08:56:36;4.75;;;2.80;;
41923;SDS011;27613;48.116;11.656;2022-09-24T09:07:42;3.90;;;2.78;;
41923;SDS011;27613;48.116;11.656;2022-09-24T09:10:21;6.05;;;3.28;;
41923;SDS011;27613;48.116;11.656;2022-09-24T09:15:53;6.93;;;3.42;;
41923;SDS011;27613;48.116;11.656;2022-09-24T09:21:17;3.67;;;2.97;;
41923;SDS011;27613;48.116;11.656;2022-09-24T09:23:51;4.22;;;2.60;;
41923;SDS011;27613;48.116;11.656;2022-09-24T09:26:19;5.78;;;2.83;;
41923;SDS011;27613;48.116;11.656;2022-09-24T09:28:45;3.88;;;2.80;;
41923;SDS011;27613;48.116;11.656;2022-09-24T09:39:57;5.40;;;2.83;;
41923;SDS011;27613;48.116;11.656;2022-09-24T09:42:25;4.73;;;3.27;;
41923;SDS011;27613;48.116;11.656;2022-09-24T09:44:54;8.50;;;4.68;;
41923;SDS011;27613;48.116;11.656;2022-09-24T09:50:07;4.20;;;3.10;;
41923;SDS011;27613;48.116;11.656;2022-09-24T09:52:38;12.43;;;11.13;;
41923;SDS011;27613;48.116;11.656;2022-09-24T09:55:04;7.22;;;4.50;;
41923;SDS011;27613;48.116;11.656;2022-09-24T09:57:31;4.53;;;3.53;;
41923;SDS011;27613;48.116;11.656;2022-09-24T09:59:59;6.43;;;2.80;;
41923;SDS011;27613;48.116;11.656;2022-09-24T10:02:28;3.53;;;2.67;;
41923;SDS011;27613;48.116;11.656;2022-09-24T10:04:58;4.75;;;3.42;;
41923;SDS011;27613;48.116;11.656;2022-09-24T10:07:26;5.90;;;2.85;;
41923;SDS011;27613;48.116;11.656;2022-09-24T10:10:10;4.50;;;2.90;;
41923;SDS011;27613;48.116;11.656;2022-09-24T10:12:45;6.78;;;3.70;;
41923;SDS011;27613;48.116;11.656;2022-09-24T10:17:39;3.92;;;2.75;;
41923;SDS011;27613;48.116;11.656;2022-09-24T10:20:29;6.18;;;3.58;;
41923;SDS011;27613;48.116;11.656;2022-09-24T10:22:57;5.82;;;3.05;;
41923;SDS011;27613;48.116;11.656;2022-09-24T10:25:26;5.03;;;2.78;;
41923;SDS011;27613;48.116;11.656;2022-09-24T10:28:01;3.75;;;2.40;;
41923;SDS011;27613;48.116;11.656;2022-09-24T10:30:53;4.22;;;2.92;;
41923;SDS011;27613;48.116;11.656;2022-09-24T10:33:22;4.80;;;3.15;;
41923;SDS011;27613;48.116;11.656;2022-09-24T10:35:48;4.80;;;3.05;;
41923;SDS011;27613;48.116;11.656;2022-09-24T10:38:15;6.75;;;3.50;;
41923;SDS011;27613;48.116;11.656;2022-09-24T10:40:43;8.93;;;3.25;;
41923;SDS011;27613;48.116;11.656;2022-09-24T10:43:14;5.38;;;3.17;;
41923;SDS011;27613;48.116;11.656;2022-09-24T10:45:58;4.07;;;2.63;;
41923;SDS011;27613;48.116;11.656;2022-09-24T10:48:49;5.32;;;2.88;;
41923;SDS011;27613;48.116;11.656;2022-09-24T10:54:19;4.80;;;3.00;;
41923;SDS011;27613;48.116;11.656;2022-09-24T10:56:48;4.65;;;2.63;;
41923;SDS011;27613;48.116;11.656;2022-09-24T11:05:11;4.03;;;2.42;;
41923;SDS011;27613;48.116;11.656;2022-09-24T11:07:51;4.50;;;2.53;;
41923;SDS011;27613;48.116;11.656;2022-09-24T11:13:30;5.50;;;2.80;;
41923;SDS011;27613;48.116;11.656;2022-09-24T11:24:36;4.55;;;3.08;;
41923;SDS011;27613;48.116;11.656;2022-09-24T11:38:13;4.53;;;3.15;;
41923;SDS011;27613;48.116;11.656;2022-09-24T11:48:54;5.28;;;3.53;;
41923;SDS011;27613;48.116;11.656;2022-09-24T11:51:56;4.45;;;3.47;;
41923;SDS011;27613;48.116;11.656;2022-09-24T11:57:32;4.25;;;3.30;;
41923;SDS011;27613;48.116;11.656;2022-09-24T12:00:03;4.60;;;4.15;;
41923;SDS011;27613;48.116;11.656;2022-09-24T12:02:38;7.38;;;4.43;;
41923;SDS011;27613;48.116;11.656;2022-09-24T12:05:12;4.32;;;3.53;;
41923;SDS011;27613;48.116;11.656;2022-09-24T12:10:26;5.00;;;3.50;;
41923;SDS011;27613;48.116;11.656;2022-09-24T12:15:45;7.22;;;3.72;;
41923;SDS011;27613;48.116;11.656;2022-09-24T12:18:21;5.78;;;3.50;;
41923;SDS011;27613;48.116;11.656;2022-09-24T12:20:57;4.43;;;3.22;;
41923;SDS011;27613;48.116;11.656;2022-09-24T12:23:27;5.97;;;3.47;;
41923;SDS011;27613;48.116;11.656;2022-09-24T12:25:57;5.32;;;3.28;;
41923;SDS011;27613;48.116;11.656;2022-09-24T12:28:25;4.13;;;3.42;;
41923;SDS011;27613;48.116;11.656;2022-09-24T12:31:26;5.28;;;3.70;;
41923;SDS011;27613;48.116;11.656;2022-09-24T12:36:58;5.35;;;3.55;;
41923;SDS011;27613;48.116;11.656;2022-09-24T12:39:30;4.80;;;3.30;;
41923;SDS011;27613;48.116;11.656;2022-09-24T12:42:03;5.43;;;3.78;;
41923;SDS011;27613;48.116;11.656;2022-09-24T12:44:42;7.75;;;3.88;;
41923;SDS011;27613;48.116;11.656;2022-09-24T12:47:24;4.70;;;3.38;;
41923;SDS011;27613;48.116;11.656;2022-09-24T12:49:57;6.63;;;4.20;;
41923;SDS011;27613;48.116;11.656;2022-09-24T12:52:34;4.00;;;3.08;;
41923;SDS011;27613;48.116;11.656;2022-09-24T12:55:16;5.20;;;3.35;;
41923;SDS011;27613;48.116;11.656;2022-09-24T12:57:54;5.30;;;3.40;;
41923;SDS011;27613;48.116;11.656;2022-09-24T13:03:05;4.57;;;3.38;;
41923;SDS011;27613;48.116;11.656;2022-09-24T13:05:51;5.22;;;3.25;;
41923;SDS011;27613;48.116;11.656;2022-09-24T13:10:53;4.30;;;2.90;;
41923;SDS011;27613;48.116;11.656;2022-09-24T13:13:29;5.18;;;3.15;;
41923;SDS011;27613;48.116;11.656;2022-09-24T13:18:41;5.30;;;3.38;;
41923;SDS011;27613;48.116;11.656;2022-09-24T13:21:20;5.80;;;3.20;;
41923;SDS011;27613;48.116;11.656;2022-09-24T13:23:49;5.88;;;3.10;;
41923;SDS011;27613;48.116;11.656;2022-09-24T13:26:28;4.57;;;3.17;;
41923;SDS011;27613;48.116;11.656;2022-09-24T13:29:02;30.95;;;16.10;;
41923;SDS011;27613;48.116;11.656;2022-09-24T13:31:38;6.28;;;3.67;;
41923;SDS011;27613;48.116;11.656;2022-09-24T13:34:19;4.47;;;3.22;;
41923;SDS011;27613;48.116;11.656;2022-09-24T13:36:59;4.90;;;3.10;;
41923;SDS011;27613;48.116;11.656;2022-09-24T13:39:35;4.95;;;3.17;;
41923;SDS011;27613;48.116;11.656;2022-09-24T13:42:07;5.38;;;3.40;;
41923;SDS011;27613;48.116;11.656;2022-09-24T13:44:39;6.53;;;3.35;;
41923;SDS011;27613;48.116;11.656;2022-09-24T13:47:28;4.47;;;3.17;;
41923;SDS011;27613;48.116;11.656;2022-09-24T13:52:41;3.53;;;2.90;;
41923;SDS011;27613;48.116;11.656;2022-09-24T13:55:22;5.30;;;3.20;;
41923;SDS011;27613;48.116;11.656;2022-09-24T13:57:55;4.93;;;3.15;;
41923;SDS011;27613;48.116;11.656;2022-09-24T14:00:22;5.68;;;3.17;;
41923;SDS011;27613;48.116;11.656;2022-09-24T14:02:51;5.07;;;3.42;;
41923;SDS011;27613;48.116;11.656;2022-09-24T14:05:40;4.50;;;3.22;;
41923;SDS011;27613;48.116;11.656;2022-09-24T14:08:08;4.13;;;2.95;;
41923;SDS011;27613;48.116;11.656;2022-09-24T14:10:37;5.15;;;3.38;;
41923;SDS011;27613;48.116;11.656;2022-09-24T14:13:13;5.53;;;3.05;;
41923;SDS011;27613;48.116;11.656;2022-09-24T14:18:32;7.22;;;4.25;;
41923;SDS011;27613;48.116;11.656;2022-09-24T14:21:06;5.63;;;3.50;;
41923;SDS011;27613;48.116;11.656;2022-09-24T14:26:07;5.43;;;3.50;;
41923;SDS011;27613;48.116;11.656;2022-09-24T14:28:45;4.15;;;3.15;;
41923;SDS011;27613;48.116;11.656;2022-09-24T14:31:10;5.68;;;3.58;;
41923;SDS011;27613;48.116;11.656;2022-09-24T14:33:36;9.15;;;4.07;;
41923;SDS011;27613;48.116;11.656;2022-09-24T14:36:03;5.68;;;3.42;;
41923;SDS011;27613;48.116;11.656;2022-09-24T14:38:33;8.68;;;3.55;;
41923;SDS011;27613;48.116;11.656;2022-09-24T14:41:22;5.20;;;3.70;;
41923;SDS011;27613;48.116;11.656;2022-09-24T14:43:51;4.05;;;3.00;;
41923;SDS011;27613;48.116;11.656;2022-09-24T14:46:21;5.32;;;3.03;;
41923;SDS011;27613;48.116;11.656;2022-09-24T14:51:57;3.80;;;3.17;;
41923;SDS011;27613;48.116;11.656;2022-09-24T14:56:52;4.57;;;3.28;;
41923;SDS011;27613;48.116;11.656;2022-09-24T14:59:29;4.90;;;3.42;;
41923;SDS011;27613;48.116;11.656;2022-09-24T15:02:08;6.03;;;3.28;;
41923;SDS011;27613;48.116;11.656;2022-09-24T15:04:43;5.18;;;3.47;;
41923;SDS011;27613;48.116;11.656;2022-09-24T15:07:13;4.20;;;3.20;;
41923;SDS011;27613;48.116;11.656;2022-09-24T15:09:41;4.22;;;2.90;;
41923;SDS011;27613;48.116;11.656;2022-09-24T15:12:07;4.95;;;3.08;;
41923;SDS011;27613;48.116;11.656;2022-09-24T15:14:34;5.18;;;3.28;;
41923;SDS011;27613;48.116;11.656;2022-09-24T15:17:17;4.57;;;3.60;;
41923;SDS011;27613;48.116;11.656;2022-09-24T15:19:45;4.90;;;3.63;;
41923;SDS011;27613;48.116;11.656;2022-09-24T15:22:11;5.38;;;3.67;;
41923;SDS011;27613;48.116;11.656;2022-09-24T15:24:37;4.85;;;3.38;;
41923;SDS011;27613;48.116;11.656;2022-09-24T15:27:04;4.85;;;3.42;;
41923;SDS011;27613;48.116;11.656;2022-09-24T15:29:43;5.53;;;3.47;;
41923;SDS011;27613;48.116;11.656;2022-09-24T15:32:16;6.47;;;3.80;;
41923;SDS011;27613;48.116;11.656;2022-09-24T15:34:43;6.50;;;4.05;;
41923;SDS011;27613;48.116;11.656;2022-09-24T15:37:10;5.68;;;4.13;;
41923;SDS011;27613;48.116;11.656;2022-09-24T15:39:37;5.63;;;3.80;;
41923;SDS011;27613;48.116;11.656;2022-09-24T15:42:04;6.38;;;4.40;;
41923;SDS011;27613;48.116;11.656;2022-09-24T15:44:29;6.20;;;4.40;;
41923;SDS011;27613;48.116;11.656;2022-09-24T15:46:55;6.32;;;4.53;;
41923;SDS011;27613;48.116;11.656;2022-09-24T15:49:21;6.50;;;4.88;;
41923;SDS011;27613;48.116;11.656;2022-09-24T15:51:51;6.72;;;5.13;;
41923;SDS011;27613;48.116;11.656;2022-09-24T15:54:19;5.63;;;4.82;;
41923;SDS011;27613;48.116;11.656;2022-09-24T15:56:46;6.45;;;5.25;;
41923;SDS011;27613;48.116;11.656;2022-09-24T15:59:16;7.25;;;5.90;;
41923;SDS011;27613;48.116;11.656;2022-09-24T16:01:43;9.30;;;6.35;;
41923;SDS011;27613;48.116;11.656;2022-09-24T16:04:10;8.18;;;5.93;;
41923;SDS011;27613;48.116;11.656;2022-09-24T16:06:36;10.10;;;6.82;;
41923;SDS011;27613;48.116;11.656;2022-09-24T16:09:02;7.85;;;6.25;;
41923;SDS011;27613;48.116;11.656;2022-09-24T16:11:28;9.15;;;6.75;;
41923;SDS011;27613;48.116;11.656;2022-09-24T16:13:54;7.95;;;6.65;;
41923;SDS011;27613;48.116;11.656;2022-09-24T16:16:20;10.50;;;7.47;;
41923;SDS011;27613;48.116;11.656;2022-09-24T16:18:45;8.57;;;7.68;;
41923;SDS011;27613;48.116;11.656;2022-09-24T16:21:11;9.13;;;7.55;;
41923;SDS011;27613;48.116;11.656;2022-09-24T16:23:36;7.72;;;6.93;;
41923;SDS011;27613;48.116;11.656;2022-09-24T16:26:02;7.65;;;6.85;;
41923;SDS011;27613;48.116;11.656;2022-09-24T16:28:28;8.63;;;7.72;;
41923;SDS011;27613;48.116;11.656;2022-09-24T16:30:54;9.82;;;8.82;;
41923;SDS011;27613;48.116;11.656;2022-09-24T16:33:21;13.48;;;8.80;;
41923;SDS011;27613;48.116;11.656;2022-09-24T16:35:48;13.25;;;10.07;;
41923;SDS011;27613;48.116;11.656;2022-09-24T16:38:14;10.38;;;9.32;;
41923;SDS011;27613;48.116;11.656;2022-09-24T16:40:39;11.52;;;10.10;;
41923;SDS011;27613;48.116;11.656;2022-09-24T16:43:05;12.35;;;10.75;;
41923;SDS011;27613;48.116;11.656;2022-09-24T16:45:31;13.00;;;10.90;;
41923;SDS011;27613;48.116;11.656;2022-09-24T16:47:57;12.88;;;10.30;;
41923;SDS011;27613;48.116;11.656;2022-09-24T16:50:23;10.55;;;9.15;;
41923;SDS011;27613;48.116;11.656;2022-09-24T16:52:49;11.68;;;10.00;;
41923;SDS011;27613;48.116;11.656;2022-09-24T16:55:18;11.05;;;9.95;;
41923;SDS011;27613;48.116;11.656;2022-09-24T16:57:44;15.43;;;11.35;;
41923;SDS011;27613;48.116;11.656;2022-09-24T17:00:10;12.68;;;10.52;;
41923;SDS011;27613;48.116;11.656;2022-09-24T17:02:36;17.70;;;12.25;;